Flight Track Log - Related Links

Times and Time Zones

All times are in EDT time to prevent confusion due to time zone crossing. See the JBU917 flight status page for this flight to view local times or setup timezone preferences in your user account.

Time Position Orientation Groundspeed Altitude Reporting Facility
EDT Latitude Longitude Course Direction KTS MPH feet Rate Location/Type
Fri 08:43:41 PM 40.6000 -73.8000 306° West 169 194 1,500  Level New York TRACON
Fri 08:44:35 PM 40.5500 -73.7667 153° Southeast 217 250 3,500 2,150 Climbing New York TRACON
Fri 08:45:41 PM 40.5833 -73.6667 66° East 266 306 5,800 2,667 Climbing New York TRACON
Fri 08:46:00 PM 40.8411 -74.1654 304° West  Level FlightAware Approximate
Fri 08:46:41 PM 40.6167 -73.5833 62° Northeast 287 330 9,100  Level New York TRACON
Fri 08:47:00 PM 40.8947 -74.2680 306° West  Level FlightAware Approximate
Fri 08:47:41 PM 40.6667 -73.5000 52° Northeast 311 358 11,000  Level New York TRACON
Fri 08:48:00 PM 40.9500 -74.3693 306° West  Level FlightAware Approximate
Fri 08:48:41 PM 40.7500 -73.5167 351° North 322 371 13,200  Level New York TRACON
Fri 08:49:41 PM 40.8500 -73.5333 353° North 337 388 15,800 2,000 Climbing New York TRACON
Fri 08:50:35 PM 40.9167 -73.6000 323° Northwest 334 384 17,000 429 Climbing New York TRACON
Fri 08:52:29 PM 41.0211 -73.7881 306° West 345 397 17,000  Level New York Center
Fri 08:53:30 PM 41.0578 -73.8969 294° West 334 384 17,000 49 Level New York Center
Fri 08:54:31 PM 41.0669 -74.0186 276° West 327 376 17,100 1,041 Climbing New York Center
Fri 08:55:31 PM 41.0844 -74.1406 281° West 339 390 19,100 2,085 Climbing New York Center
Fri 08:56:29 PM 41.0933 -74.2647 275° West 339 390 21,200 2,034 Climbing New York Center
Fri 08:57:29 PM 41.1061 -74.3894 278° West 339 390 23,100 1,736 Climbing New York Center
Fri 08:58:30 PM 41.1186 -74.5222 277° West 352 405 24,700 1,488 Climbing New York Center
Fri 08:59:30 PM 41.1331 -74.6553 278° West 357 411 26,100 1,250 Climbing New York Center
Fri 09:00:30 PM 41.1728 -74.7789 293° West 364 419 27,200 1,240 Climbing New York Center
Fri 09:01:31 PM 41.2250 -74.8978 300° West 364 419 28,600 1,563 Climbing New York Center
Fri 09:02:29 PM 41.2747 -75.0167 299° West 369 425 30,300 1,613 Climbing New York Center
Fri 09:03:30 PM 41.3247 -75.1331 300° West 369 425 31,800 1,300 Climbing New York Center
Fri 09:04:29 PM 41.3728 -75.2414 301° West 364 419 32,900 950 Climbing New York Center
Fri 09:05:30 PM 41.4206 -75.3553 299° West 359 413 33,700 893 Climbing New York Center
Fri 09:06:30 PM 41.4681 -75.4664 300° West 359 413 34,700 900 Climbing New York Center
Fri 09:07:30 PM 41.5050 -75.5853 293° West 354 407 35,500 645 Climbing New York Center
Fri 09:08:31 PM 41.5397 -75.7042 291° West 349 402 36,000 250 Climbing New York Center
Fri 09:09:30 PM 41.5742 -75.8261 291° West 349 402 36,000  Level New York Center
Fri 09:10:32 PM 41.6106 -75.9508 291° West 355 409 36,000  Level New York Center
Fri 09:11:29 PM 41.6464 -76.0814 290° West 365 420 36,000  Level New York Center
Fri 09:12:30 PM 41.6822 -76.2092 291° West 365 420 36,000  Level New York Center
Fri 09:13:30 PM 41.7200 -76.3400 291° West 370 426 36,000  Level New York Center
Fri 09:14:31 PM 41.7519 -76.4567 290° West 377 434 36,000  Level New York Center
Fri 09:18:08 PM 41.8836 -76.9403 290° West 376 433 36,000  Level Cleveland Center
Fri 09:19:08 PM 41.9186 -77.0669 290° West 371 427 36,000  Level Cleveland Center
Fri 09:20:08 PM 41.9539 -77.1989 290° West 367 422 36,000  Level Cleveland Center
Fri 09:21:08 PM 41.9889 -77.3283 290° West 367 422 36,000  Level Cleveland Center
Fri 09:22:08 PM 42.0239 -77.4608 290° West 367 422 36,000  Level Cleveland Center
Fri 09:23:08 PM 42.0586 -77.5906 290° West 367 422 36,000  Level Cleveland Center
Fri 09:24:08 PM 42.0933 -77.7206 290° West 367 422 36,000  Level Cleveland Center
Fri 09:25:08 PM 42.1297 -77.8533 290° West 367 422 36,000  Level Cleveland Center
Fri 09:26:08 PM 42.1619 -77.9864 288° West 372 428 36,000  Level Cleveland Center
Fri 09:27:08 PM 42.1983 -78.1167 291° West 372 428 36,000  Level Cleveland Center
Fri 09:28:08 PM 42.2322 -78.2500 289° West 372 428 36,000  Level Cleveland Center
Fri 09:29:08 PM 42.2683 -78.3806 291° West 377 434 36,000  Level Cleveland Center
Fri 09:30:08 PM 42.3019 -78.5169 288° West 377 434 36,000  Level Cleveland Center
Fri 09:31:08 PM 42.3356 -78.6478 289° West 377 434 36,000  Level Cleveland Center
Fri 09:32:08 PM 42.3692 -78.7817 289° West 377 434 36,000  Level Cleveland Center
Fri 09:33:08 PM 42.4003 -78.9158 287° West 377 434 36,000  Level Cleveland Center
Fri 09:34:08 PM 42.4356 -79.0500 290° West 377 434 36,000  Level Cleveland Center
Fri 09:35:08 PM 42.4706 -79.1842 290° West 377 434 36,000  Level Cleveland Center
Fri 09:36:08 PM 42.4931 -79.3244 282° West 382 440 36,000  Level Cleveland Center
Fri 09:37:08 PM 42.5006 -79.4653 274° West 382 440 36,000  Level Cleveland Center
Fri 09:38:08 PM 42.5061 -79.6086 273° West 382 440 36,000  Level Cleveland Center
Fri 09:39:08 PM 42.5156 -79.7550 275° West 387 445 36,000  Level Cleveland Center
Fri 09:40:08 PM 42.5228 -79.8986 274° West 387 445 36,000  Level Cleveland Center
Fri 09:41:08 PM 42.5256 -80.0422 272° West 387 445 36,000  Level Cleveland Center
Fri 09:42:08 PM 42.5325 -80.1886 274° West 387 445 36,000  Level Cleveland Center
Fri 09:43:08 PM 42.5392 -80.3325 274° West 387 445 36,000  Level Cleveland Center
Fri 09:44:08 PM 42.5436 -80.4789 272° West 387 445 36,000  Level Cleveland Center
Fri 09:45:08 PM 42.5519 -80.6256 274° West 387 445 36,000  Level Cleveland Center
Fri 09:46:08 PM 42.5558 -80.7719 272° West 387 445 36,000  Level Cleveland Center
Fri 09:47:08 PM 42.5619 -80.9158 273° West 387 445 36,000  Level Cleveland Center
Fri 09:48:08 PM 42.5675 -81.0625 273° West 387 445 36,000  Level Cleveland Center
Fri 09:49:08 PM 42.5711 -81.2064 272° West 387 445 36,000  Level Cleveland Center
Fri 09:50:08 PM 42.5764 -81.3586 273° West 393 452 36,000  Level Cleveland Center
Fri 09:51:08 PM 42.5881 -81.4883 277° West 398 458 36,000  Level Cleveland Center
Fri 09:52:08 PM 42.6158 -81.6328 285° West 391 450 36,000  Level Cleveland Center
Fri 09:53:08 PM 42.6394 -81.7742 283° West 391 450 36,000  Level Cleveland Center
Fri 09:54:08 PM 42.6650 -81.9186 284° West 391 450 36,000  Level Cleveland Center
Fri 09:55:08 PM 42.6883 -82.0633 282° West 396 456 36,000  Level Cleveland Center
Fri 09:56:08 PM 42.7133 -82.2081 283° West 396 456 36,000  Level Cleveland Center
Fri 09:57:08 PM 42.7383 -82.3556 283° West 396 456 36,000  Level Cleveland Center
Fri 09:58:08 PM 42.7589 -82.5061 281° West 396 456 36,000  Level Cleveland Center
Fri 09:59:08 PM 42.7708 -82.6536 276° West 396 456 36,000  Level Cleveland Center
Fri 10:00:08 PM 42.7806 -82.8039 275° West 396 456 36,000  Level Cleveland Center
Fri 10:01:08 PM 42.7922 -82.9542 276° West 396 456 36,000  Level Cleveland Center
Fri 10:02:08 PM 42.8014 -83.1072 275° West 404 465 36,000 -300 Level Cleveland Center
Fri 10:03:08 PM 42.8106 -83.2606 275° West 404 465 35,400 -800 Descending Cleveland Center
Fri 10:04:08 PM 42.8214 -83.4167 275° West 411 473 34,400 -1,000 Descending Cleveland Center
Fri 10:05:08 PM 42.8278 -83.5700 273° West 411 473 33,400 -1,000 Descending Cleveland Center
Fri 10:06:08 PM 42.8364 -83.7233 274° West 411 473 32,400 -694 Descending Cleveland Center
Fri 10:07:09 PM 42.8444 -83.8850 274° West 417 480 32,000 -200 Descending Cleveland Center
Fri 10:08:08 PM 42.8417 -84.0436 269° West 423 487 32,000  Level Cleveland Center
Fri 10:09:08 PM 42.8347 -84.2047 267° West 423 487 32,000  Level Cleveland Center
Fri 10:10:08 PM 42.8269 -84.3797 267° West 418 481 32,000  Level Cleveland Center
Fri 10:12:26 PM 42.8178 -84.7244 268° West 430 495 32,000  Level Chicago Center
Fri 10:13:28 PM 42.8111 -84.9214 267° West 434 499 32,000  Level Chicago Center
Fri 10:14:29 PM 42.8042 -85.0836 267° West 431 496 32,000 -439 Level Chicago Center
Fri 10:15:31 PM 42.7986 -85.2461 267° West 431 496 31,100 -1,561 Descending Chicago Center
Fri 10:16:32 PM 42.7906 -85.4100 266° West 434 499 28,800 -2,195 Descending Chicago Center
Fri 10:17:34 PM 42.7736 -85.5667 262° West 422 486 26,600 -2,098 Descending Chicago Center
Fri 10:18:35 PM 42.7469 -85.7172 256° West 409 471 24,500 -2,049 Descending Chicago Center
Fri 10:19:37 PM 42.7206 -85.8647 256° West 402 463 22,400 -2,049 Descending Chicago Center
Fri 10:20:38 PM 42.6939 -86.0072 256° West 392 451 20,300 -1,171 Descending Chicago Center
Fri 10:21:40 PM 42.6689 -86.1478 256° West 383 441 20,000 -439 Descending Chicago Center
Fri 10:22:41 PM 42.6439 -86.2869 256° West 379 436 19,400 -885 Descending Chicago Center
Fri 10:23:42 PM 42.6172 -86.4211 255° West 370 426 18,200 -1,268 Descending Chicago Center
Fri 10:24:44 PM 42.5875 -86.5822 256° West 368 423 16,800 -1,268 Descending Chicago Center
Fri 10:25:45 PM 42.5636 -86.7119 256° West 358 412 15,600 -1,171 Descending Chicago Center
Fri 10:26:47 PM 42.5308 -86.8419 251° West 364 419 14,400 -1,122 Descending Chicago Center
Fri 10:27:48 PM 42.4975 -86.9656 250° West 356 410 13,300 -1,122 Descending Chicago Center
Fri 10:28:50 PM 42.4617 -87.0839 248° West 345 397 12,100 -1,122 Descending Chicago Center
Fri 10:29:51 PM 42.4300 -87.2050 251° West 341 392 11,000 -1,033 Descending Chicago Center
Fri 10:30:52 PM 42.3969 -87.3250 250° West 343 395 10,000 -488 Descending Chicago Center
Fri 10:31:54 PM 42.3625 -87.4486 249° West 345 397 10,000  Level Chicago Center
Fri 10:32:55 PM 42.3169 -87.5600 241° Southwest 343 395 10,000  Level Chicago Center
Fri 10:33:57 PM 42.2264 -87.6547 218° Southwest 342 394 10,000 -341 Level Chicago Center
Fri 10:34:58 PM 42.1617 -87.7233 218° Southwest 311 358 9,300 -1,082 Descending Chicago Center
Fri 10:35:59 PM 42.1022 -87.7864 218° Southwest 283 326 7,800 -1,535 Descending Chicago Center
Fri 10:36:24 PM 42.1000 -87.8333 266° West 279 321 7,100 -565 Descending Chicago TRACON
Fri 10:37:24 PM 42.1000 -87.9333 270° West 284 327 7,000 -53 Descending Chicago TRACON
Fri 10:38:18 PM 42.1000 -88.0333 270° West 271 312 7,000 -211 Level Chicago TRACON
Fri 10:39:18 PM 42.1000 -88.1167 270° West 227 261 6,600 -393 Descending Chicago TRACON
Fri 10:40:05 PM 42.0908 -88.1656 256° West 234 269 6,300 -1,056 Descending Chicago Center
Fri 10:41:06 PM 42.0406 -88.1853 196° South 188 216 4,700 -1,122 Descending Chicago Center
Fri 10:42:08 PM 41.9939 -88.1806 176° South 174 200 4,000 -585 Descending Chicago Center
Fri 10:43:09 PM 41.9703 -88.1267 120° Southeast 174 200 3,500 -683 Descending Chicago Center
Fri 10:44:11 PM 41.9683 -88.0661 92° East 169 194 2,600 -878 Descending Chicago Center
Fri 10:45:12 PM 41.9681 -88.0067 90° East 166 191 1,700 -738 Descending Chicago Center
Fri 10:46:13 PM 41.9681 -87.9569 90° East 153 176 1,100 -590 Descending Chicago Center

Login

Don't have an account? Register now (free) for customized features, flight alerts, and more!